Time;durP1;ratioP1;P1;durP2;ratioP2;P2;SDS_P1;SDS_P2;PMS_P1;PMS_P2;Temp;Humidity;BMP_temperature;BMP_pressure;BME280_temperature;BME280_humidity;BME280_pressure;Samples;Min_cycle;Max_cycle;Signal;HPM_P1;HPM_P2
2023/03/01 00:02:21;;;;;;;11.38;7.00;;;1.70;99.90;;;;;;5092383;28;20490;-57
2023/03/01 00:04:49;;;;;;;10.68;6.90;;;1.60;99.90;;;;;;5094767;28;20426;-57
2023/03/01 00:07:16;;;;;;;8.23;6.50;;;1.50;99.90;;;;;;5093733;28;20436;-57
2023/03/01 00:09:45;;;;;;;10.43;6.20;;;1.50;99.90;;;;;;5093511;28;20429;-57
2023/03/01 00:12:13;;;;;;;9.15;5.90;;;1.40;99.90;;;;;;5094564;28;20420;-58
2023/03/01 00:14:40;;;;;;;10.10;6.35;;;1.40;99.90;;;;;;5094554;28;20426;-58
2023/03/01 00:17:07;;;;;;;10.32;7.35;;;1.30;99.90;;;;;;5094655;28;20410;-58
2023/03/01 00:19:34;;;;;;;8.75;5.88;;;1.30;99.90;;;;;;5093904;28;20706;-58
2023/03/01 00:22:02;;;;;;;10.30;5.83;;;1.30;99.90;;;;;;5092949;28;20650;-57
2023/03/01 00:24:29;;;;;;;9.40;5.78;;;1.30;99.90;;;;;;5095811;28;20429;-58
2023/03/01 00:26:58;;;;;;;8.15;5.50;;;1.30;99.90;;;;;;5096215;28;20428;-59
2023/03/01 00:29:25;;;;;;;9.48;5.80;;;1.30;99.90;;;;;;5096489;28;20580;-60
2023/03/01 00:31:52;;;;;;;7.93;5.57;;;1.30;99.90;;;;;;5096745;28;20428;-59
2023/03/01 00:34:19;;;;;;;9.85;6.00;;;1.40;99.90;;;;;;5096887;28;20433;-59
2023/03/01 00:36:46;;;;;;;9.38;6.47;;;1.50;99.90;;;;;;5098436;28;20706;-58
2023/03/01 00:39:16;;;;;;;9.10;5.93;;;1.50;99.90;;;;;;5096631;28;20437;-58
2023/03/01 00:41:44;;;;;;;9.30;6.78;;;1.30;99.90;;;;;;5097392;28;20406;-56
2023/03/01 00:44:12;;;;;;;10.75;6.22;;;1.30;99.90;;;;;;5097285;28;20486;-58
2023/03/01 00:46:40;;;;;;;10.07;6.40;;;1.10;99.90;;;;;;5098167;28;20729;-58
2023/03/01 00:49:07;;;;;;;10.05;6.20;;;1.00;99.90;;;;;;5097941;28;20422;-58
2023/03/01 00:51:34;;;;;;;9.32;6.20;;;1.00;99.90;;;;;;5097823;28;20426;-58
2023/03/01 00:54:03;;;;;;;8.88;5.50;;;1.20;99.90;;;;;;5097979;28;20432;-59
2023/03/01 00:56:30;;;;;;;8.32;5.68;;;1.20;99.90;;;;;;5097546;28;20817;-59
2023/03/01 00:58:58;;;;;;;8.82;6.15;;;1.10;99.90;;;;;;5097736;28;20802;-58
2023/03/01 01:01:30;;;;;;;8.43;6.10;;;1.10;99.90;;;;;;5098300;28;20425;-58
2023/03/01 01:03:59;;;;;;;8.35;6.20;;;1.10;99.90;;;;;;5096021;28;20906;-59
2023/03/01 01:06:27;;;;;;;10.27;6.70;;;0.90;99.90;;;;;;5097658;28;20418;-58
2023/03/01 01:08:56;;;;;;;10.43;5.80;;;0.90;99.90;;;;;;5097587;28;20503;-59
2023/03/01 01:11:25;;;;;;;10.15;6.82;;;1.00;99.90;;;;;;5097586;28;20418;-59
2023/03/01 01:13:52;;;;;;;8.90;5.60;;;1.00;99.90;;;;;;5097549;28;20821;-57
2023/03/01 01:16:21;;;;;;;9.25;6.10;;;1.10;99.90;;;;;;5096952;28;20916;-59
2023/03/01 01:18:50;;;;;;;9.77;6.47;;;1.00;99.90;;;;;;5095677;28;20410;-57
2023/03/01 01:21:19;;;;;;;9.90;5.40;;;1.00;99.90;;;;;;5096249;28;20418;-58
2023/03/01 01:23:47;;;;;;;8.43;6.20;;;1.00;99.90;;;;;;5095668;28;20825;-58
2023/03/01 01:26:17;;;;;;;9.02;5.93;;;1.00;99.90;;;;;;5095611;28;20417;-58
2023/03/01 01:28:44;;;;;;;10.63;6.47;;;1.00;99.90;;;;;;5095788;28;20421;-59
2023/03/01 01:31:11;;;;;;;7.60;5.10;;;1.10;99.90;;;;;;5095981;28;20414;-58
2023/03/01 01:33:38;;;;;;;8.88;4.95;;;1.10;99.90;;;;;;5095789;28;20428;-58
2023/03/01 01:36:08;;;;;;;8.57;5.90;;;1.10;99.90;;;;;;5096862;28;20844;-58
2023/03/01 01:38:36;;;;;;;11.02;6.30;;;1.20;99.90;;;;;;5096793;28;20425;-57
2023/03/01 01:41:03;;;;;;;10.15;6.93;;;1.30;99.90;;;;;;5096905;28;20499;-59
2023/03/01 01:43:34;;;;;;;9.50;6.40;;;1.30;99.90;;;;;;5096933;28;20774;-58
2023/03/01 01:46:05;;;;;;;8.60;5.55;;;1.30;99.90;;;;;;5096619;28;20817;-58
2023/03/01 01:48:41;;;;;;;8.55;5.70;;;1.20;99.90;;;;;;5096389;28;20429;-57
2023/03/01 01:51:13;;;;;;;9.38;6.10;;;1.40;99.90;;;;;;5096432;28;20487;-58
2023/03/01 01:53:41;;;;;;;7.90;5.60;;;1.30;99.90;;;;;;5096256;28;20422;-57
2023/03/01 01:56:11;;;;;;;9.07;5.87;;;1.20;99.90;;;;;;5094662;28;20718;-57
2023/03/01 01:58:40;;;;;;;8.73;5.57;;;1.20;99.90;;;;;;5095481;28;20426;-56
2023/03/01 02:01:08;;;;;;;9.87;6.30;;;1.00;99.90;;;;;;5096306;28;20430;-58
2023/03/01 02:03:41;;;;;;;8.93;5.97;;;0.90;99.90;;;;;;5095542;28;20437;-57
2023/03/01 02:06:18;;;;;;;9.73;6.47;;;0.90;99.90;;;;;;5095389;28;20509;-58
2023/03/01 02:08:46;;;;;;;8.70;6.35;;;1.10;99.90;;;;;;5096837;28;20409;-57
2023/03/01 02:11:15;;;;;;;9.45;5.88;;;1.10;99.90;;;;;;5096474;28;20414;-59
2023/03/01 02:13:43;;;;;;;10.77;6.18;;;1.20;99.90;;;;;;5095969;28;20729;-57
2023/03/01 02:16:12;;;;;;;10.83;6.27;;;1.20;99.90;;;;;;5096380;28;20553;-58
2023/03/01 02:18:40;;;;;;;8.10;5.20;;;1.10;99.90;;;;;;5096530;28;20417;-58
2023/03/01 02:21:24;;;;;;;9.93;6.50;;;1.50;99.90;;;;;;5095324;28;20429;-56
2023/03/01 02:23:51;;;;;;;10.40;6.63;;;1.50;99.90;;;;;;5095728;28;20427;-55
2023/03/01 02:26:25;;;;;;;8.90;6.40;;;1.40;99.90;;;;;;5094596;28;20444;-55
2023/03/01 02:28:53;;;;;;;11.40;6.88;;;1.30;99.90;;;;;;5095830;28;20818;-57
2023/03/01 02:34:07;;;;;;;10.27;6.28;;;1.10;99.90;;;;;;5095884;28;20421;-57
2023/03/01 02:36:39;;;;;;;9.90;6.30;;;0.90;99.90;;;;;;5095638;28;20428;-58
2023/03/01 02:39:14;;;;;;;9.75;6.60;;;1.10;99.90;;;;;;5095089;28;20428;-58
2023/03/01 02:41:44;;;;;;;10.82;6.55;;;1.20;99.90;;;;;;5095325;28;20737;-59
2023/03/01 02:44:12;;;;;;;11.23;6.85;;;1.10;99.90;;;;;;5095249;28;20425;-58
2023/03/01 02:46:44;;;;;;;9.85;5.88;;;1.10;99.90;;;;;;5095398;28;20425;-57
2023/03/01 02:49:21;;;;;;;9.57;7.25;;;1.10;99.90;;;;;;5095922;28;20429;-58
2023/03/01 02:52:15;;;;;;;12.02;6.80;;;1.40;99.90;;;;;;5095939;28;20418;-57
2023/03/01 02:54:45;;;;;;;12.57;7.78;;;1.30;99.90;;;;;;5061281;28;20817;-56
2023/03/01 02:57:12;;;;;;;9.68;6.75;;;1.20;99.90;;;;;;5095828;28;20792;-56
2023/03/01 02:59:42;;;;;;;10.70;6.80;;;1.20;99.90;;;;;;5094744;28;20430;-58
2023/03/01 03:02:35;;;;;;;11.55;7.60;;;1.20;99.90;;;;;;5094773;28;20431;-62
2023/03/01 03:05:05;;;;;;;9.75;5.95;;;1.10;99.90;;;;;;5095021;28;20434;-58
2023/03/01 03:07:34;;;;;;;9.15;6.40;;;1.20;99.90;;;;;;5094530;28;20508;-58
2023/03/01 03:10:01;;;;;;;9.95;6.80;;;1.40;99.90;;;;;;5095677;28;20422;-56
2023/03/01 03:12:29;;;;;;;10.60;7.05;;;1.50;99.90;;;;;;5095343;28;20422;-56
2023/03/01 03:14:57;;;;;;;11.02;7.07;;;1.40;99.90;;;;;;5095019;28;20740;-58
2023/03/01 03:17:25;;;;;;;9.23;6.37;;;1.30;99.90;;;;;;5095659;28;20705;-58
2023/03/01 03:19:52;;;;;;;10.65;6.68;;;1.20;99.90;;;;;;5094439;28;20872;-58
2023/03/01 03:22:19;;;;;;;11.13;6.73;;;1.20;99.90;;;;;;5094224;28;20722;-57
2023/03/01 03:24:46;;;;;;;10.02;7.18;;;1.10;99.90;;;;;;5094655;28;20426;-57
2023/03/01 03:27:13;;;;;;;9.98;6.55;;;1.20;99.90;;;;;;5094870;28;20424;-55
2023/03/01 03:29:40;;;;;;;10.50;6.60;;;1.20;99.90;;;;;;5095233;28;20429;-57
2023/03/01 03:32:09;;;;;;;8.68;5.70;;;1.20;99.90;;;;;;5094282;28;20414;-58
2023/03/01 03:34:36;;;;;;;12.48;6.90;;;1.30;99.90;;;;;;5094539;28;20414;-59
2023/03/01 03:37:03;;;;;;;11.63;7.25;;;1.30;99.90;;;;;;5095097;28;20418;-58
2023/03/01 03:39:34;;;;;;;10.35;6.40;;;1.30;99.90;;;;;;5094754;28;20429;-59
2023/03/01 03:42:02;;;;;;;10.50;6.38;;;1.20;99.90;;;;;;5095333;28;20402;-57
2023/03/01 03:44:29;;;;;;;11.48;7.60;;;1.20;99.90;;;;;;5095107;28;20783;-58
2023/03/01 03:46:57;;;;;;;10.65;6.55;;;1.20;99.90;;;;;;5094292;28;20426;-57
2023/03/01 03:49:25;;;;;;;10.40;7.50;;;1.20;99.90;;;;;;5093799;28;20426;-58
2023/03/01 03:51:52;;;;;;;10.00;7.00;;;1.20;99.90;;;;;;5094703;28;20420;-58
2023/03/01 03:54:19;;;;;;;10.85;7.20;;;1.10;99.90;;;;;;5094912;28;20846;-56
2023/03/01 03:56:46;;;;;;;11.20;7.57;;;1.00;99.90;;;;;;5094785;28;20849;-58
2023/03/01 03:59:14;;;;;;;12.15;7.55;;;1.00;99.90;;;;;;5097649;28;20425;-59
2023/03/01 04:01:41;;;;;;;12.98;7.40;;;1.00;99.90;;;;;;5099110;28;20922;-59
2023/03/01 04:04:08;;;;;;;10.17;6.10;;;1.10;99.90;;;;;;5098392;28;20422;-58
2023/03/01 04:06:36;;;;;;;12.50;7.10;;;1.20;99.90;;;;;;5098805;28;20701;-58
2023/03/01 04:09:04;;;;;;;11.80;6.40;;;1.30;99.90;;;;;;5098610;28;20508;-58
2023/03/01 04:11:31;;;;;;;9.65;6.90;;;1.50;99.90;;;;;;5098428;28;20414;-59
2023/03/01 04:13:59;;;;;;;11.23;7.47;;;1.50;99.90;;;;;;5098686;28;20434;-58
2023/03/01 04:16:27;;;;;;;12.90;8.25;;;1.50;99.90;;;;;;5098111;28;20428;-58
2023/03/01 04:18:54;;;;;;;13.50;8.50;;;1.60;99.90;;;;;;5098295;28;20762;-58
2023/03/01 04:21:22;;;;;;;13.95;8.68;;;1.40;99.90;;;;;;5098021;28;20429;-58
2023/03/01 04:23:52;;;;;;;12.05;7.47;;;1.30;99.90;;;;;;5098083;28;20826;-58
2023/03/01 04:26:20;;;;;;;11.50;7.07;;;1.30;99.90;;;;;;5098354;28;20824;-57
2023/03/01 04:28:49;;;;;;;11.40;7.85;;;1.50;99.90;;;;;;5097514;28;20842;-57
2023/03/01 04:31:20;;;;;;;10.77;7.70;;;1.60;99.90;;;;;;5096815;28;20425;-57
2023/03/01 04:33:51;;;;;;;11.95;8.02;;;1.70;99.90;;;;;;5097492;28;20453;-58
2023/03/01 04:36:19;;;;;;;10.85;7.93;;;1.60;99.90;;;;;;5097211;28;20422;-57
2023/03/01 04:38:48;;;;;;;11.40;7.50;;;1.60;99.90;;;;;;5095692;28;20493;-56
2023/03/01 04:41:18;;;;;;;12.70;8.02;;;1.60;99.90;;;;;;5097037;28;20442;-57
2023/03/01 04:43:45;;;;;;;10.25;7.70;;;1.60;99.90;;;;;;5096236;28;20417;-58
2023/03/01 04:46:14;;;;;;;10.88;7.18;;;1.90;99.90;;;;;;5096668;28;20418;-59
2023/03/01 04:48:42;;;;;;;9.60;7.20;;;2.00;99.90;;;;;;5096999;28;20449;-58
2023/03/01 04:51:13;;;;;;;12.30;7.22;;;1.90;99.90;;;;;;5097477;28;20413;-59
2023/03/01 04:53:40;;;;;;;11.30;7.75;;;1.80;99.90;;;;;;5097398;28;20418;-56
2023/03/01 04:56:08;;;;;;;11.80;7.57;;;1.80;99.90;;;;;;5097138;28;20442;-58
2023/03/01 04:58:36;;;;;;;12.35;7.88;;;1.70;99.90;;;;;;5096628;28;20512;-58
2023/03/01 05:01:14;;;;;;;9.70;7.07;;;1.60;99.90;;;;;;5095506;28;20433;-56
2023/03/01 05:03:43;;;;;;;13.10;7.97;;;1.60;99.90;;;;;;5096398;28;20426;-59
2023/03/01 05:06:10;;;;;;;11.27;8.10;;;1.40;99.90;;;;;;5095399;28;20441;-59
2023/03/01 05:08:38;;;;;;;11.60;7.28;;;1.40;99.90;;;;;;5095108;28;20426;-58
2023/03/01 05:11:08;;;;;;;12.48;8.23;;;1.60;99.90;;;;;;5092889;28;20430;-59
2023/03/01 05:13:38;;;;;;;11.13;7.30;;;1.80;99.90;;;;;;5091408;28;20853;-58
2023/03/01 05:16:07;;;;;;;11.52;7.47;;;2.00;99.90;;;;;;5092536;28;20432;-59
2023/03/01 05:18:38;;;;;;;11.63;8.18;;;2.20;99.90;;;;;;5094057;28;20413;-58
2023/03/01 05:21:08;;;;;;;11.50;7.37;;;2.20;99.90;;;;;;5096023;28;20442;-58
2023/03/01 05:23:35;;;;;;;13.85;8.45;;;2.30;99.90;;;;;;5095852;28;20441;-57
2023/03/01 05:26:05;;;;;;;11.40;7.55;;;2.30;99.90;;;;;;5094650;28;20421;-58
2023/03/01 05:28:32;;;;;;;12.10;7.67;;;2.10;99.90;;;;;;5093150;28;21004;-58
2023/03/01 05:31:01;;;;;;;11.35;7.70;;;2.10;99.90;;;;;;5093021;28;20464;-58
2023/03/01 05:33:28;;;;;;;10.25;7.13;;;2.10;99.90;;;;;;5092793;28;20426;-59
2023/03/01 05:35:55;;;;;;;10.60;7.47;;;2.20;99.90;;;;;;5093456;28;20413;-58
2023/03/01 05:38:23;;;;;;;12.68;7.18;;;2.40;99.90;;;;;;5093160;28;20522;-59
2023/03/01 05:40:50;;;;;;;11.65;7.15;;;2.60;99.90;;;;;;5092331;28;20507;-59
2023/03/01 05:43:18;;;;;;;8.43;6.97;;;2.50;99.90;;;;;;5095662;28;20426;-59
2023/03/01 05:45:46;;;;;;;11.88;8.68;;;2.30;99.90;;;;;;5095208;28;20712;-58
2023/03/01 05:48:15;;;;;;;10.50;7.47;;;2.40;99.90;;;;;;5095019;28;20542;-59
2023/03/01 05:50:43;;;;;;;9.40;7.05;;;2.60;99.90;;;;;;5092652;28;20429;-59
2023/03/01 05:53:13;;;;;;;9.38;6.10;;;3.10;99.90;;;;;;5096633;28;20425;-57
2023/03/01 05:55:41;;;;;;;12.27;7.53;;;3.70;99.90;;;;;;5094155;28;20540;-58
2023/03/01 05:58:10;;;;;;;11.63;7.50;;;3.50;99.90;;;;;;5094696;28;20417;-59
2023/03/01 06:00:38;;;;;;;10.52;6.30;;;3.40;99.90;;;;;;5093768;28;20443;-58
2023/03/01 06:03:05;;;;;;;10.32;7.30;;;3.30;99.90;;;;;;5093899;28;20434;-58
2023/03/01 06:05:33;;;;;;;9.30;6.57;;;3.40;99.90;;;;;;5095543;28;20417;-57
2023/03/01 06:08:01;;;;;;;10.75;6.80;;;3.50;99.90;;;;;;5092898;28;20845;-58
2023/03/01 06:10:29;;;;;;;10.82;7.45;;;3.20;99.90;;;;;;5093665;28;20521;-57
2023/03/01 06:12:56;;;;;;;11.40;7.57;;;2.90;99.90;;;;;;5094658;28;20426;-55
2023/03/01 06:15:24;;;;;;;12.75;8.77;;;2.60;99.90;;;;;;5095075;28;20474;-58
2023/03/01 06:17:51;;;;;;;13.20;8.13;;;2.60;99.90;;;;;;5094072;28;20430;-58
2023/03/01 06:20:21;;;;;;;10.27;6.88;;;2.30;99.90;;;;;;5092602;28;20412;-58
2023/03/01 06:22:50;;;;;;;12.27;7.43;;;2.60;99.90;;;;;;5093613;28;20430;-58
2023/03/01 06:25:20;;;;;;;12.25;7.50;;;2.70;99.90;;;;;;5094319;28;20814;-58
2023/03/01 06:27:48;;;;;;;11.63;8.02;;;2.60;99.90;;;;;;5092837;28;20418;-57
2023/03/01 06:30:17;;;;;;;12.75;7.68;;;2.60;99.90;;;;;;5093864;28;20422;-57
2023/03/01 06:32:44;;;;;;;11.30;8.02;;;2.40;99.90;;;;;;5093900;28;20655;-58
2023/03/01 06:35:13;;;;;;;11.40;7.33;;;2.00;99.90;;;;;;5091268;28;20824;-58
2023/03/01 06:37:41;;;;;;;11.88;7.93;;;2.50;99.90;;;;;;5091475;28;20721;-58
2023/03/01 06:40:13;;;;;;;10.80;7.70;;;2.90;99.90;;;;;;5090075;28;20425;-58
2023/03/01 06:42:42;;;;;;;11.88;7.90;;;3.00;99.90;;;;;;5088489;28;20429;-57
2023/03/01 06:45:10;;;;;;;13.77;8.40;;;2.60;99.90;;;;;;5087937;28;20418;-58
2023/03/01 06:47:37;;;;;;;12.02;7.40;;;2.60;99.90;;;;;;5087283;28;20741;-57
2023/03/01 06:50:05;;;;;;;13.32;7.65;;;2.70;99.90;;;;;;5089874;28;20414;-55
2023/03/01 06:52:32;;;;;;;10.98;6.97;;;2.90;99.90;;;;;;5090177;28;21016;-58
2023/03/01 06:55:00;;;;;;;11.07;7.35;;;3.20;99.90;;;;;;5089807;28;20417;-58
2023/03/01 06:57:29;;;;;;;16.05;8.07;;;3.40;99.90;;;;;;5091914;28;20426;-57
2023/03/01 06:59:56;;;;;;;10.93;7.50;;;3.40;99.90;;;;;;5091403;28;20440;-59
2023/03/01 07:02:24;;;;;;;9.52;6.97;;;3.30;99.90;;;;;;5088904;28;20880;-59
2023/03/01 07:04:51;;;;;;;11.20;7.68;;;3.20;99.90;;;;;;5090116;28;20414;-57
2023/03/01 07:07:19;;;;;;;11.50;8.27;;;3.40;99.90;;;;;;5092846;28;20421;-60
2023/03/01 07:09:46;;;;;;;10.15;6.97;;;3.20;99.90;;;;;;5090898;28;20425;-57
2023/03/01 07:12:13;;;;;;;11.43;8.23;;;3.20;99.90;;;;;;5092779;28;20434;-61
2023/03/01 07:14:42;;;;;;;11.40;8.17;;;3.40;99.90;;;;;;5092976;28;20711;-54
2023/03/01 07:17:09;;;;;;;11.00;8.25;;;3.50;99.90;;;;;;5091722;28;20421;-57
2023/03/01 07:19:36;;;;;;;12.73;8.60;;;3.20;99.90;;;;;;5091543;28;20476;-55
2023/03/01 07:22:07;;;;;;;11.63;7.32;;;2.90;99.90;;;;;;5092840;28;20437;-57
2023/03/01 07:24:34;;;;;;;13.77;8.55;;;2.90;99.90;;;;;;5092100;28;20429;-57
2023/03/01 07:27:01;;;;;;;13.50;8.80;;;2.80;99.90;;;;;;5089320;28;20437;-56
2023/03/01 07:29:29;;;;;;;14.70;8.50;;;2.60;99.90;;;;;;5091061;28;20523;-57
2023/03/01 07:31:58;;;;;;;11.87;8.20;;;2.50;99.90;;;;;;5090960;28;20468;-57
2023/03/01 07:34:25;;;;;;;11.65;8.35;;;2.70;99.90;;;;;;5090471;28;20512;-56
2023/03/01 07:36:52;;;;;;;12.43;8.43;;;2.50;99.90;;;;;;5091382;28;20508;-55
2023/03/01 07:39:22;;;;;;;12.57;8.57;;;2.30;99.90;;;;;;5090457;28;20420;-57
2023/03/01 07:41:49;;;;;;;13.90;7.57;;;2.50;99.90;;;;;;5090524;28;20430;-54
2023/03/01 07:44:17;;;;;;;13.05;8.23;;;2.50;99.90;;;;;;5093008;28;20417;-51
2023/03/01 07:46:44;;;;;;;11.35;7.78;;;2.60;99.90;;;;;;5092430;28;20428;-54
2023/03/01 07:49:13;;;;;;;14.00;8.60;;;2.50;99.90;;;;;;5091568;28;20422;-54
2023/03/01 07:51:40;;;;;;;10.93;7.88;;;2.40;99.90;;;;;;5091919;28;20520;-55
2023/03/01 07:54:07;;;;;;;11.30;7.97;;;2.40;99.90;;;;;;5090402;28;20409;-58
2023/03/01 07:56:34;;;;;;;12.00;8.13;;;2.80;99.90;;;;;;5090393;28;20484;-57
2023/03/01 07:59:01;;;;;;;14.68;7.97;;;2.90;99.90;;;;;;5089373;28;20424;-56
2023/03/01 08:01:28;;;;;;;13.70;8.63;;;2.70;99.90;;;;;;5090668;28;20434;-58
2023/03/01 08:03:56;;;;;;;13.10;8.50;;;2.80;99.90;;;;;;5090825;28;20505;-54
2023/03/01 08:06:24;;;;;;;13.67;8.80;;;2.80;99.90;;;;;;5084074;28;20477;-56
2023/03/01 08:08:51;;;;;;;12.20;8.65;;;2.60;99.90;;;;;;5077229;28;21048;-58
2023/03/01 08:11:18;;;;;;;12.38;9.02;;;2.70;99.90;;;;;;5089908;28;20513;-53
2023/03/01 08:13:49;;;;;;;13.73;9.45;;;2.50;99.90;;;;;;5090751;28;20414;-56
2023/03/01 08:16:17;;;;;;;11.98;8.57;;;2.40;99.90;;;;;;5088720;28;20425;-53
2023/03/01 08:18:44;;;;;;;12.65;7.95;;;2.40;99.90;;;;;;5091102;28;20846;-53
2023/03/01 08:21:13;;;;;;;13.25;8.80;;;2.60;99.90;;;;;;5091125;28;20464;-57
2023/03/01 08:23:42;;;;;;;13.52;9.10;;;2.60;99.90;;;;;;5091251;28;20429;-55
2023/03/01 08:26:11;;;;;;;11.90;7.97;;;2.70;99.90;;;;;;5090998;28;20441;-54
2023/03/01 08:28:39;;;;;;;13.68;9.73;;;2.60;99.90;;;;;;5089759;28;20452;-56
2023/03/01 08:31:15;;;;;;;14.57;9.45;;;2.60;99.90;;;;;;5090010;28;20706;-56
2023/03/01 08:33:42;;;;;;;13.07;8.68;;;2.50;99.90;;;;;;5091307;28;20428;-54
2023/03/01 08:36:10;;;;;;;14.68;8.90;;;2.40;99.90;;;;;;5088529;28;20417;-54
2023/03/01 08:38:37;;;;;;;13.57;8.93;;;2.40;99.90;;;;;;5090383;28;20414;-56
2023/03/01 08:41:05;;;;;;;13.05;9.27;;;2.50;99.90;;;;;;5088984;28;20833;-57
2023/03/01 08:43:32;;;;;;;13.45;7.90;;;2.60;99.90;;;;;;5092883;28;20426;-57
2023/03/01 08:46:00;;;;;;;13.38;8.60;;;2.70;99.90;;;;;;5095462;28;20872;-56
2023/03/01 08:48:29;;;;;;;13.80;8.82;;;2.70;99.90;;;;;;5093501;28;20417;-56
2023/03/01 08:50:56;;;;;;;13.87;8.97;;;2.80;99.90;;;;;;5092046;28;20422;-56
2023/03/01 08:53:23;;;;;;;14.40;8.52;;;2.80;99.90;;;;;;5093293;28;20435;-57
2023/03/01 08:55:50;;;;;;;13.52;8.05;;;2.70;99.90;;;;;;5092776;28;20421;-54
2023/03/01 08:58:21;;;;;;;13.63;9.03;;;3.30;99.90;;;;;;5092699;28;20414;-57
2023/03/01 09:00:49;;;;;;;15.00;9.20;;;3.70;99.90;;;;;;5092808;28;20769;-58
2023/03/01 09:03:18;;;;;;;15.88;8.25;;;3.90;99.90;;;;;;5091765;28;20422;-55
2023/03/01 09:05:49;;;;;;;12.03;8.53;;;4.10;99.90;;;;;;5093541;28;20422;-53
2023/03/01 09:08:16;;;;;;;12.82;8.55;;;3.90;99.90;;;;;;5093204;28;20471;-53
2023/03/01 09:10:45;;;;;;;12.18;8.50;;;3.70;99.90;;;;;;5093001;28;20424;-56
2023/03/01 09:13:14;;;;;;;11.57;7.50;;;3.60;99.90;;;;;;5092838;28;20487;-53
2023/03/01 09:15:44;;;;;;;14.30;10.00;;;3.80;99.90;;;;;;5094847;28;20465;-55
2023/03/01 09:18:11;;;;;;;14.63;9.20;;;3.70;99.90;;;;;;5094595;28;20513;-56
2023/03/01 09:20:40;;;;;;;12.77;8.23;;;3.70;99.90;;;;;;5094059;28;20479;-55
2023/03/01 09:23:08;;;;;;;15.60;10.20;;;3.80;99.90;;;;;;5095048;28;20437;-52
2023/03/01 09:25:36;;;;;;;12.50;8.70;;;3.90;99.90;;;;;;5094942;28;20806;-50
2023/03/01 09:28:04;;;;;;;11.65;8.70;;;3.80;99.90;;;;;;5094775;28;20409;-56
2023/03/01 09:30:33;;;;;;;14.98;9.13;;;4.00;99.90;;;;;;5094986;28;20421;-56
2023/03/01 09:33:02;;;;;;;16.00;8.95;;;4.10;99.90;;;;;;5094880;28;20437;-53
2023/03/01 09:35:31;;;;;;;13.75;10.10;;;4.20;99.90;;;;;;5094514;28;20414;-56
2023/03/01 09:37:59;;;;;;;13.60;9.10;;;4.20;99.90;;;;;;5093729;28;20432;-54
2023/03/01 09:40:29;;;;;;;11.13;8.20;;;4.10;99.90;;;;;;5091710;28;20433;-53
2023/03/01 09:43:03;;;;;;;12.07;8.77;;;4.10;99.90;;;;;;5092205;28;20957;-53
2023/03/01 09:45:36;;;;;;;14.85;9.50;;;4.30;99.90;;;;;;5093530;28;20845;-52
2023/03/01 09:48:13;;;;;;;15.85;9.65;;;4.40;99.90;;;;;;5094126;28;20417;-51
2023/03/01 09:50:46;;;;;;;11.97;8.07;;;4.30;99.90;;;;;;5092739;28;20410;-54
2023/03/01 09:53:18;;;;;;;13.75;8.32;;;4.40;99.90;;;;;;5091385;28;20410;-53
2023/03/01 09:55:50;;;;;;;14.40;10.20;;;4.40;99.90;;;;;;5092231;28;20788;-53
2023/03/01 09:58:39;;;;;;;14.38;9.10;;;4.50;99.90;;;;;;5091847;28;20880;-56
2023/03/01 10:01:21;;;;;;;13.07;8.23;;;4.60;99.90;;;;;;5093524;28;20429;-52
2023/03/01 10:04:06;;;;;;;13.80;9.68;;;4.70;99.90;;;;;;5093298;28;20428;-56
2023/03/01 10:06:34;;;;;;;13.80;9.30;;;4.70;99.90;;;;;;5093074;28;20438;-56
2023/03/01 10:09:07;;;;;;;13.15;8.32;;;4.80;99.90;;;;;;5091110;28;20514;-56
2023/03/01 10:11:44;;;;;;;13.10;8.45;;;4.90;99.90;;;;;;5091072;28;21085;-57
2023/03/01 10:14:28;;;;;;;13.30;8.60;;;5.00;99.90;;;;;;5088117;28;20574;-55
2023/03/01 10:17:02;;;;;;;9.57;7.10;;;5.10;99.90;;;;;;5089389;28;20441;-54
2023/03/01 10:19:36;;;;;;;9.10;7.82;;;5.40;99.90;;;;;;5089873;28;20418;-55
2023/03/01 10:22:13;;;;;;;13.57;8.53;;;5.50;99.90;;;;;;5071424;28;20439;-54
2023/03/01 10:24:41;;;;;;;13.02;7.43;;;5.70;99.90;;;;;;5092970;28;20872;-55
2023/03/01 10:27:17;;;;;;;12.00;8.38;;;5.80;99.90;;;;;;5090924;28;20521;-54
2023/03/01 10:29:51;;;;;;;11.43;7.70;;;5.70;99.90;;;;;;5091171;28;20861;-54
2023/03/01 10:32:21;;;;;;;14.05;8.75;;;5.80;99.90;;;;;;5092245;28;20427;-56
2023/03/01 10:34:50;;;;;;;12.30;8.40;;;6.00;99.90;;;;;;5093308;28;20457;-52
2023/03/01 10:37:20;;;;;;;12.57;8.30;;;5.90;99.90;;;;;;5092744;28;20418;-56
2023/03/01 10:40:05;;;;;;;10.38;7.70;;;5.90;99.90;;;;;;5091337;28;20478;-52
2023/03/01 10:42:34;;;;;;;10.67;7.40;;;6.10;99.90;;;;;;5091587;28;20430;-55
2023/03/01 10:45:20;;;;;;;11.43;8.40;;;6.30;99.90;;;;;;5090420;28;20449;-55
2023/03/01 10:48:03;;;;;;;9.80;6.97;;;6.30;99.90;;;;;;5092494;28;20439;-53
2023/03/01 10:50:33;;;;;;;11.02;7.93;;;6.70;99.90;;;;;;5092762;28;20877;-54
2023/03/01 10:53:04;;;;;;;10.45;7.30;;;7.00;99.90;;;;;;5091820;28;20432;-56
2023/03/01 10:55:36;;;;;;;9.35;6.95;;;7.30;99.90;;;;;;5090937;28;20414;-53
2023/03/01 10:58:18;;;;;;;10.32;6.80;;;7.70;99.90;;;;;;5090885;28;20523;-52
2023/03/01 11:00:52;;;;;;;8.93;7.07;;;8.00;99.90;;;;;;5091974;28;20480;-57
2023/03/01 11:03:23;;;;;;;11.93;8.38;;;8.00;99.90;;;;;;5090937;28;20433;-55
2023/03/01 11:06:03;;;;;;;9.75;6.70;;;7.90;99.90;;;;;;5090203;28;20573;-56
2023/03/01 11:08:38;;;;;;;10.90;7.30;;;8.00;99.90;;;;;;5091167;28;20499;-52
2023/03/01 11:11:15;;;;;;;11.30;7.57;;;8.10;99.90;;;;;;5091389;28;20501;-55
2023/03/01 11:13:52;;;;;;;9.60;7.33;;;8.10;99.90;;;;;;5088951;28;20444;-53
2023/03/01 11:16:28;;;;;;;9.27;7.07;;;8.30;99.90;;;;;;5089500;28;20430;-55
2023/03/01 11:19:02;;;;;;;24.57;9.33;;;8.40;99.90;;;;;;5092261;28;20833;-56
2023/03/01 11:21:36;;;;;;;30.03;10.20;;;8.90;99.90;;;;;;5092419;28;20528;-54
2023/03/01 11:24:08;;;;;;;19.45;9.38;;;9.00;99.90;;;;;;5093175;28;20857;-49
2023/03/01 11:26:41;;;;;;;10.47;7.50;;;8.70;99.90;;;;;;5090193;28;20434;-54
2023/03/01 11:29:27;;;;;;;8.88;6.43;;;8.80;99.90;;;;;;5092357;28;20791;-56
2023/03/01 11:32:00;;;;;;;10.13;7.82;;;8.70;99.90;;;;;;5090986;28;20508;-53
2023/03/01 11:34:39;;;;;;;12.65;8.27;;;8.90;99.90;;;;;;5090557;28;20413;-53
2023/03/01 11:37:18;;;;;;;12.95;8.00;;;9.00;99.90;;;;;;5089088;28;20810;-56
2023/03/01 11:39:56;;;;;;;11.93;8.57;;;8.80;99.90;;;;;;5077258;28;20479;-55
2023/03/01 11:42:37;;;;;;;10.25;7.93;;;8.80;99.90;;;;;;5089415;28;20928;-55
2023/03/01 11:45:11;;;;;;;10.68;7.38;;;8.90;99.90;;;;;;5090068;28;20433;-55
2023/03/01 11:48:08;;;;;;;10.35;6.95;;;9.10;99.90;;;;;;5089473;28;20434;-54
2023/03/01 11:50:41;;;;;;;11.60;7.40;;;9.00;99.70;;;;;;5090841;28;20420;-55
2023/03/01 11:53:34;;;;;;;9.50;6.80;;;9.00;99.50;;;;;;5091599;28;20414;-54
2023/03/01 11:56:13;;;;;;;10.70;7.55;;;9.40;99.90;;;;;;5091388;28;20453;-54
2023/03/01 11:58:56;;;;;;;14.15;8.45;;;9.80;98.80;;;;;;5086980;28;20417;-57
2023/03/01 12:01:37;;;;;;;11.38;7.15;;;10.10;97.10;;;;;;5092667;28;20433;-54
2023/03/01 12:04:32;;;;;;;10.52;7.65;;;10.30;96.20;;;;;;5089690;28;20434;-55
2023/03/01 12:07:01;;;;;;;10.23;6.90;;;10.20;95.70;;;;;;5081203;28;20426;-54
2023/03/01 12:09:40;;;;;;;9.52;6.90;;;10.00;94.90;;;;;;5088986;28;20517;-54
2023/03/01 12:12:38;;;;;;;12.17;8.10;;;9.90;95.90;;;;;;5091453;28;21012;-49
2023/03/01 12:15:33;;;;;;;11.00;7.40;;;9.80;95.60;;;;;;5087324;28;20462;-56
2023/03/01 12:18:23;;;;;;;9.30;7.50;;;9.50;95.30;;;;;;5079277;28;20434;-55
2023/03/01 12:21:01;;;;;;;8.05;6.15;;;9.50;95.70;;;;;;5094105;28;20421;-54
2023/03/01 12:23:55;;;;;;;10.27;7.40;;;9.60;96.30;;;;;;5092856;28;20734;-57
2023/03/01 12:26:30;;;;;;;9.27;6.40;;;9.60;95.50;;;;;;5084817;28;20437;-53
2023/03/01 12:29:20;;;;;;;12.40;6.55;;;9.80;95.10;;;;;;5093849;28;20424;-55
2023/03/01 12:32:07;;;;;;;9.00;6.82;;;9.90;96.00;;;;;;5094384;28;20437;-54
2023/03/01 12:35:19;;;;;;;8.48;5.90;;;10.00;94.60;;;;;;5092447;28;20416;-56
2023/03/01 12:37:55;;;;;;;8.27;6.10;;;10.20;93.20;;;;;;5057980;28;20433;-55
2023/03/01 12:40:39;;;;;;;9.07;6.57;;;10.20;93.40;;;;;;5096031;28;20714;-56
2023/03/01 12:43:24;;;;;;;9.53;7.13;;;10.20;92.30;;;;;;5095729;28;20430;-56
2023/03/01 12:46:14;;;;;;;7.88;6.63;;;10.00;93.40;;;;;;5093275;28;20825;-55
2023/03/01 12:48:55;;;;;;;8.35;6.10;;;10.20;92.70;;;;;;5077085;28;20426;-55
2023/03/01 12:51:25;;;;;;;9.20;6.72;;;10.10;92.20;;;;;;5072723;28;20432;-54
2023/03/01 12:53:56;;;;;;;10.25;6.40;;;10.10;93.00;;;;;;5088627;28;20433;-54
2023/03/01 12:56:25;;;;;;;8.38;6.22;;;10.10;92.90;;;;;;5093480;28;20434;-52
2023/03/01 12:59:03;;;;;;;10.20;5.87;;;10.20;93.10;;;;;;5083035;28;20870;-53
2023/03/01 13:01:53;;;;;;;8.00;5.68;;;10.10;92.90;;;;;;5089837;28;20430;-53
2023/03/01 13:04:47;;;;;;;7.18;5.20;;;10.20;92.80;;;;;;5094202;28;20833;-56
2023/03/01 13:07:29;;;;;;;7.97;5.60;;;10.20;92.00;;;;;;5087184;28;20750;-55
2023/03/01 13:10:07;;;;;;;8.20;5.80;;;9.90;92.40;;;;;;5085310;28;20423;-54
2023/03/01 13:13:02;;;;;;;10.20;5.93;;;10.00;92.20;;;;;;5094842;28;20410;-56